createdAt,value
2018-07-17T00:00:47.609Z,7.47
2018-07-17T00:03:16.134Z,7.10
2018-07-17T00:05:44.626Z,6.40
2018-07-17T00:08:13.366Z,7.97
2018-07-17T00:10:42.577Z,7.30
2018-07-17T00:13:11.132Z,6.57
2018-07-17T00:15:39.670Z,7.20
2018-07-17T00:18:08.974Z,7.57
2018-07-17T00:20:37.482Z,7.70
2018-07-17T00:23:06.034Z,8.70
2018-07-17T00:25:34.595Z,9.67
2018-07-17T00:28:03.104Z,9.00
2018-07-17T00:30:31.652Z,8.10
2018-07-17T00:33:00.174Z,7.50
2018-07-17T00:35:28.704Z,8.10
2018-07-17T00:37:57.285Z,7.00
2018-07-17T00:40:25.897Z,7.53
2018-07-17T00:42:55.350Z,7.73
2018-07-17T00:45:24.723Z,7.83
2018-07-17T00:47:54.099Z,8.43
2018-07-17T00:50:23.253Z,8.23
2018-07-17T00:52:51.794Z,8.13
2018-07-17T00:55:20.292Z,7.77
2018-07-17T00:57:48.810Z,7.40
2018-07-17T01:00:17.349Z,7.90
2018-07-17T01:02:51.205Z,7.67
2018-07-17T01:05:26.825Z,9.97
2018-07-17T01:08:00.812Z,9.20
2018-07-17T01:10:34.765Z,9.30
2018-07-17T01:13:02.459Z,10.10
2018-07-17T01:15:34.049Z,9.43
2018-07-17T01:18:02.605Z,8.70
2018-07-17T01:20:31.280Z,9.87
2018-07-17T01:23:00.200Z,8.63
2018-07-17T01:25:28.733Z,9.13
2018-07-17T01:27:57.263Z,10.47
2018-07-17T01:30:25.792Z,11.47
2018-07-17T01:32:54.413Z,9.60
2018-07-17T01:35:22.902Z,12.53
2018-07-17T01:37:52.291Z,10.10
2018-07-17T01:40:21.328Z,10.30
2018-07-17T01:42:50.463Z,10.90
2018-07-17T01:45:19.395Z,10.63
2018-07-17T01:47:48.795Z,9.90
2018-07-17T01:50:17.341Z,10.90
2018-07-17T01:52:45.836Z,10.67
2018-07-17T01:55:14.464Z,12.80
2018-07-17T01:57:42.989Z,11.77
2018-07-17T02:00:11.512Z,10.83
2018-07-17T02:02:40.036Z,10.93
2018-07-17T02:05:08.515Z,12.53
2018-07-17T02:07:37.021Z,11.70
2018-07-17T02:10:05.545Z,11.80
2018-07-17T02:12:34.025Z,12.27
2018-07-17T02:15:02.573Z,11.23
2018-07-17T02:17:31.126Z,9.77
2018-07-17T02:19:59.636Z,10.47
2018-07-17T02:22:28.158Z,10.90
2018-07-17T02:24:56.683Z,10.17
2018-07-17T02:27:25.186Z,11.87
2018-07-17T02:29:53.710Z,12.03
2018-07-17T02:32:22.496Z,10.47
2018-07-17T02:34:51.126Z,10.70
2018-07-17T02:37:20.455Z,12.97
2018-07-17T02:39:48.991Z,10.13
2018-07-17T02:42:17.551Z,12.03
2018-07-17T02:44:46.095Z,12.37
2018-07-17T02:47:15.343Z,13.23
2018-07-17T02:49:43.930Z,14.37
2018-07-17T02:52:12.447Z,13.60
2018-07-17T02:54:40.979Z,14.37
2018-07-17T02:57:09.668Z,12.27
2018-07-17T02:59:38.356Z,12.80
2018-07-17T03:02:06.898Z,13.03
2018-07-17T03:04:35.691Z,14.13
2018-07-17T03:07:04.307Z,12.33
2018-07-17T03:09:32.820Z,12.90
2018-07-17T03:12:02.292Z,13.60
2018-07-17T03:14:30.801Z,12.47
2018-07-17T03:16:59.348Z,12.80
2018-07-17T03:19:27.970Z,13.67
2018-07-17T03:21:56.476Z,14.30
2018-07-17T03:24:25.057Z,12.80
2018-07-17T03:26:55.534Z,15.20
2018-07-17T03:29:24.047Z,14.13
2018-07-17T03:31:52.710Z,16.30
2018-07-17T03:34:21.240Z,15.70
2018-07-17T03:36:49.741Z,17.30
2018-07-17T03:39:18.285Z,16.13
2018-07-17T03:41:46.823Z,17.20
2018-07-17T03:44:15.341Z,16.50
2018-07-17T03:46:43.909Z,17.93
2018-07-17T03:49:12.433Z,19.20
2018-07-17T03:51:40.947Z,17.97
2018-07-17T03:54:10.729Z,19.20
2018-07-17T03:56:39.250Z,20.80
2018-07-17T03:59:08.289Z,19.30
2018-07-17T04:01:36.825Z,19.23
2018-07-17T04:04:05.339Z,18.40
2018-07-17T04:06:33.848Z,18.20
2018-07-17T04:09:02.403Z,18.87
2018-07-17T04:11:30.916Z,19.33
2018-07-17T04:13:59.477Z,17.90
2018-07-17T04:16:28.064Z,18.07
2018-07-17T04:18:56.598Z,18.10
2018-07-17T04:21:25.317Z,17.53
2018-07-17T04:23:53.851Z,18.53
2018-07-17T04:26:22.553Z,17.83
2018-07-17T04:28:51.076Z,16.37
2018-07-17T04:31:19.613Z,18.27
2018-07-17T04:33:48.112Z,16.70
2018-07-17T04:36:17.717Z,17.80
2018-07-17T04:38:46.280Z,15.13
2018-07-17T04:41:14.858Z,15.00
2018-07-17T04:43:43.664Z,15.67
2018-07-17T04:46:12.240Z,16.00
2018-07-17T04:48:40.758Z,13.90
2018-07-17T04:51:09.318Z,14.10
2018-07-17T04:53:37.868Z,15.60
2018-07-17T04:56:06.391Z,13.83
2018-07-17T04:58:34.941Z,16.80
2018-07-17T05:01:03.461Z,17.30
2018-07-17T05:03:32.017Z,16.60
2018-07-17T05:06:00.568Z,15.70
2018-07-17T05:08:30.066Z,15.50
2018-07-17T05:10:58.609Z,15.43
2018-07-17T05:13:27.134Z,16.67
2018-07-17T05:15:55.696Z,15.20
2018-07-17T05:18:24.817Z,17.47
2018-07-17T05:20:53.328Z,17.50
2018-07-17T05:23:21.861Z,15.83
2018-07-17T05:25:50.410Z,16.27
2018-07-17T05:28:18.896Z,15.70
2018-07-17T05:30:47.428Z,16.10
2018-07-17T05:33:16.003Z,16.47
2018-07-17T05:35:44.623Z,17.00
2018-07-17T05:38:13.183Z,15.50
2018-07-17T05:40:42.862Z,12.23
2018-07-17T05:43:11.403Z,12.47
2018-07-17T05:45:40.701Z,10.90
2018-07-17T05:48:10.185Z,10.50
2018-07-17T05:50:38.735Z,11.50
2018-07-17T05:53:07.294Z,8.40
2018-07-17T05:55:35.790Z,8.40
2018-07-17T05:58:04.013Z,9.00
2018-07-17T06:00:32.577Z,7.80
2018-07-17T06:03:01.091Z,7.67
2018-07-17T06:05:30.899Z,7.83
2018-07-17T06:07:59.472Z,7.30
2018-07-17T06:10:28.197Z,6.27
2018-07-17T06:12:57.052Z,6.70
2018-07-17T06:15:25.626Z,5.73
2018-07-17T06:17:54.148Z,5.20
2018-07-17T06:20:22.653Z,5.33
2018-07-17T06:22:51.322Z,4.80
2018-07-17T06:25:20.733Z,4.93
2018-07-17T06:27:49.285Z,4.67
2018-07-17T06:30:17.842Z,4.17
2018-07-17T06:32:46.384Z,4.33
2018-07-17T06:35:14.929Z,3.87
2018-07-17T06:37:43.487Z,5.50
2018-07-17T06:40:12.024Z,4.17
2018-07-17T06:42:40.558Z,3.90
2018-07-17T06:45:09.151Z,3.60
2018-07-17T06:47:38.373Z,4.63
2018-07-17T06:50:07.152Z,4.20
2018-07-17T06:52:35.698Z,3.70
2018-07-17T06:55:04.401Z,2.80
2018-07-17T06:57:32.923Z,2.93
2018-07-17T07:00:01.470Z,3.17
2018-07-17T07:02:30.007Z,2.97
2018-07-17T07:04:58.550Z,2.90
2018-07-17T07:07:27.089Z,2.90
2018-07-17T07:09:55.596Z,2.60
2018-07-17T07:12:24.339Z,2.87
2018-07-17T07:14:52.887Z,2.27
2018-07-17T07:17:21.406Z,2.70
2018-07-17T07:19:49.953Z,1.97
2018-07-17T07:22:18.492Z,1.70
2018-07-17T07:24:47.022Z,1.83
2018-07-17T07:27:15.771Z,1.80
2018-07-17T07:29:44.315Z,2.10
2018-07-17T07:32:12.921Z,1.30
2018-07-17T07:34:41.445Z,1.90
2018-07-17T07:37:10.001Z,1.93
2018-07-17T07:39:38.621Z,1.53
2018-07-17T07:42:07.285Z,2.13
2018-07-17T07:44:35.838Z,1.53
2018-07-17T07:47:04.409Z,2.40
2018-07-17T07:49:33.599Z,1.80
2018-07-17T07:52:02.676Z,2.07
2018-07-17T07:54:31.354Z,1.50
2018-07-17T07:56:59.852Z,2.10
2018-07-17T07:59:28.379Z,2.13
2018-07-17T08:01:56.905Z,1.37
2018-07-17T08:04:26.864Z,1.70
2018-07-17T08:06:55.721Z,1.93
2018-07-17T08:09:24.223Z,2.30
2018-07-17T08:11:52.839Z,1.67
2018-07-17T08:14:21.387Z,1.37
2018-07-17T08:16:49.884Z,1.60
2018-07-17T08:19:18.437Z,2.20
2018-07-17T08:21:49.948Z,2.20
2018-07-17T08:24:18.558Z,2.03
2018-07-17T08:26:47.197Z,1.73
2018-07-17T08:29:16.196Z,1.50
2018-07-17T08:31:44.749Z,2.20
2018-07-17T08:34:13.437Z,1.83
2018-07-17T08:36:42.812Z,2.10
2018-07-17T08:39:11.442Z,2.10
2018-07-17T08:41:39.976Z,1.70
2018-07-17T08:44:09.518Z,1.47
2018-07-17T08:46:38.027Z,1.40
2018-07-17T08:49:06.625Z,1.63
2018-07-17T08:51:35.591Z,3.57
2018-07-17T08:54:04.252Z,1.47
2018-07-17T08:56:32.884Z,1.73
2018-07-17T08:59:02.906Z,1.67
2018-07-17T09:01:31.522Z,1.27
2018-07-17T09:04:00.958Z,1.20
2018-07-17T09:06:29.456Z,1.63
2018-07-17T09:08:57.982Z,1.17
2018-07-17T09:11:26.494Z,1.43
2018-07-17T09:13:55.852Z,1.27
2018-07-17T09:16:24.367Z,1.70
2018-07-17T09:18:52.881Z,1.33
2018-07-17T09:21:21.402Z,1.20
2018-07-17T09:23:49.937Z,0.90
2018-07-17T09:26:18.429Z,1.10
2018-07-17T09:28:46.953Z,1.10
2018-07-17T09:31:16.332Z,1.23
2018-07-17T09:33:44.977Z,1.70
2018-07-17T09:36:13.474Z,1.87
2018-07-17T09:38:41.967Z,1.13
2018-07-17T09:41:10.474Z,1.07
2018-07-17T09:43:41.635Z,1.33
2018-07-17T09:46:10.169Z,1.63
2018-07-17T09:48:38.659Z,1.57
2018-07-17T09:51:09.103Z,1.60
2018-07-17T09:53:37.656Z,1.10
2018-07-17T09:56:06.343Z,1.70
2018-07-17T09:58:35.097Z,2.33
2018-07-17T10:01:09.010Z,2.10
2018-07-17T10:03:37.540Z,1.83
2018-07-17T10:06:06.082Z,1.93
2018-07-17T10:08:34.718Z,2.00
2018-07-17T10:11:03.293Z,1.87
2018-07-17T10:13:33.801Z,1.80
2018-07-17T10:16:02.684Z,2.37
2018-07-17T10:18:31.193Z,2.10
2018-07-17T10:20:59.750Z,1.60
2018-07-17T10:23:28.280Z,1.50
2018-07-17T10:25:56.848Z,2.40
2018-07-17T10:28:25.374Z,1.93
2018-07-17T10:30:54.750Z,3.00
2018-07-17T10:33:23.310Z,2.20
2018-07-17T10:35:51.887Z,2.40
2018-07-17T10:38:21.479Z,2.40
2018-07-17T10:40:50.066Z,3.10
2018-07-17T10:43:19.685Z,2.20
2018-07-17T10:45:48.976Z,1.60
2018-07-17T10:48:17.538Z,2.13
2018-07-17T10:50:46.115Z,1.87
2018-07-17T10:53:17.758Z,2.07
2018-07-17T10:55:46.428Z,2.30
2018-07-17T10:58:15.052Z,2.27
2018-07-17T11:00:43.667Z,2.53
2018-07-17T11:03:12.718Z,2.70
2018-07-17T11:05:41.273Z,2.40
2018-07-17T11:08:09.855Z,2.70
2018-07-17T11:10:38.430Z,2.30
2018-07-17T11:13:07.047Z,2.80
2018-07-17T11:15:36.195Z,2.63
2018-07-17T11:18:04.802Z,2.60
2018-07-17T11:20:34.542Z,2.73
2018-07-17T11:23:03.123Z,3.37
2018-07-17T11:25:31.697Z,3.70
2018-07-17T11:28:00.249Z,3.53
2018-07-17T11:30:28.846Z,4.00
2018-07-17T11:32:57.389Z,3.53
2018-07-17T11:35:25.951Z,3.70
2018-07-17T11:37:54.509Z,4.30
2018-07-17T11:40:23.051Z,4.30
2018-07-17T11:42:52.543Z,4.50
2018-07-17T11:45:21.079Z,5.60
2018-07-17T11:47:49.640Z,6.23
2018-07-17T11:50:18.195Z,4.37
2018-07-17T11:52:46.765Z,5.33
2018-07-17T11:55:15.307Z,4.63
2018-07-17T11:57:43.872Z,3.93
2018-07-17T12:00:12.418Z,4.47
2018-07-17T12:02:41.010Z,5.30
2018-07-17T12:05:09.666Z,5.83
2018-07-17T12:07:38.244Z,4.63
2018-07-17T12:10:07.452Z,4.33
2018-07-17T12:12:35.984Z,4.07
2018-07-17T12:15:04.624Z,3.30
2018-07-17T12:17:33.181Z,3.43
2018-07-17T12:20:01.784Z,3.70
2018-07-17T12:22:30.237Z,3.17
2018-07-17T12:24:58.807Z,4.30
2018-07-17T12:27:27.339Z,3.50
2018-07-17T12:29:55.879Z,3.30
2018-07-17T12:32:24.436Z,3.63
2018-07-17T12:34:53.014Z,4.27
2018-07-17T12:37:21.506Z,4.10
2018-07-17T12:39:50.113Z,4.13
2018-07-17T12:42:19.659Z,3.40
2018-07-17T12:44:48.249Z,3.73
2018-07-17T12:47:17.243Z,3.90
2018-07-17T12:49:46.043Z,3.03
2018-07-17T12:52:14.867Z,2.33
2018-07-17T12:54:43.502Z,2.50
2018-07-17T12:57:12.124Z,2.80
2018-07-17T12:59:40.717Z,1.83
2018-07-17T13:02:09.344Z,2.30
2018-07-17T13:04:37.858Z,1.80
2018-07-17T13:07:06.453Z,3.00
2018-07-17T13:09:34.981Z,2.73
2018-07-17T13:12:03.876Z,1.97
2018-07-17T13:14:32.408Z,2.03
2018-07-17T13:17:00.938Z,2.67
2018-07-17T13:19:29.449Z,1.10
2018-07-17T13:21:58.019Z,1.40
2018-07-17T13:24:26.602Z,1.47
2018-07-17T13:26:55.133Z,1.30
2018-07-17T13:29:23.656Z,1.33
2018-07-17T13:31:52.353Z,1.40
2018-07-17T13:34:20.919Z,1.20
2018-07-17T13:36:50.087Z,1.50
2018-07-17T13:39:18.722Z,1.63
2018-07-17T13:41:47.207Z,1.40
2018-07-17T13:44:15.847Z,1.73
2018-07-17T13:46:44.454Z,2.03
2018-07-17T13:49:12.980Z,2.00
2018-07-17T13:51:41.495Z,1.63
2018-07-17T13:54:10.103Z,1.50
2018-07-17T13:56:39.239Z,1.00
2018-07-17T13:59:08.072Z,1.30
2018-07-17T14:01:36.725Z,1.20
2018-07-17T14:04:05.293Z,1.43
2018-07-17T14:06:33.865Z,1.50
2018-07-17T14:09:02.425Z,1.30
2018-07-17T14:11:30.959Z,1.87
2018-07-17T14:13:59.546Z,1.30
2018-07-17T14:16:28.078Z,1.80
2018-07-17T14:18:56.607Z,1.80
2018-07-17T14:21:25.146Z,1.37
2018-07-17T14:23:53.715Z,1.60
2018-07-17T14:26:22.238Z,0.93
2018-07-17T14:28:50.753Z,1.60
2018-07-17T14:31:19.293Z,1.10
2018-07-17T14:33:47.911Z,1.60
2018-07-17T14:36:16.436Z,1.60
2018-07-17T14:38:45.013Z,1.40
2018-07-17T14:41:13.542Z,1.00
2018-07-17T14:43:42.086Z,1.23
2018-07-17T14:46:10.681Z,0.90
2018-07-17T14:48:39.677Z,1.40
2018-07-17T14:51:10.715Z,1.60
2018-07-17T14:53:39.398Z,1.27
2018-07-17T14:56:08.292Z,1.00
2018-07-17T14:58:36.870Z,0.90
2018-07-17T15:01:06.001Z,1.67
2018-07-17T15:03:35.642Z,1.30
2018-07-17T15:06:04.471Z,1.30
2018-07-17T15:08:33.244Z,0.90
2018-07-17T15:11:01.801Z,1.60
2018-07-17T15:13:29.995Z,1.57
2018-07-17T15:15:58.667Z,1.20
2018-07-17T15:18:27.098Z,1.33
2018-07-17T15:20:55.852Z,1.60
2018-07-17T15:23:25.268Z,1.50
2018-07-17T15:25:53.808Z,1.37
2018-07-17T15:28:22.323Z,2.30
2018-07-17T15:30:50.922Z,1.57
2018-07-17T15:33:19.485Z,1.40
2018-07-17T15:35:47.986Z,1.77
2018-07-17T15:38:18.660Z,1.30
2018-07-17T15:40:47.198Z,1.07
2018-07-17T15:43:15.881Z,0.90
2018-07-17T15:45:44.475Z,1.10
2018-07-17T15:48:12.991Z,1.30
2018-07-17T15:50:41.524Z,0.87
2018-07-17T15:53:10.069Z,1.60
2018-07-17T15:55:38.613Z,1.10
2018-07-17T15:58:07.257Z,1.90
2018-07-17T16:00:36.530Z,1.33
2018-07-17T16:03:05.120Z,1.30
2018-07-17T16:05:33.814Z,1.23
2018-07-17T16:08:02.362Z,1.83
2018-07-17T16:10:30.898Z,1.33
2018-07-17T16:12:59.644Z,0.80
2018-07-17T16:15:28.212Z,1.23
2018-07-17T16:17:56.745Z,1.23
2018-07-17T16:20:25.294Z,1.30
2018-07-17T16:22:53.879Z,2.10
2018-07-17T16:25:22.444Z,1.10
2018-07-17T16:27:50.975Z,1.70
2018-07-17T16:30:19.716Z,1.23
2018-07-17T16:32:48.288Z,1.30
2018-07-17T16:35:16.814Z,2.60
2018-07-17T16:37:45.399Z,1.90
2018-07-17T16:40:13.948Z,1.07
2018-07-17T16:42:42.459Z,1.20
2018-07-17T16:45:11.029Z,1.23
2018-07-17T16:47:39.557Z,2.00
2018-07-17T16:50:08.159Z,1.57
2018-07-17T16:52:37.508Z,1.60
2018-07-17T16:55:06.146Z,2.20
2018-07-17T16:57:34.692Z,2.23
2018-07-17T17:00:03.291Z,2.20
2018-07-17T17:02:31.855Z,1.60
2018-07-17T17:05:00.387Z,2.10
2018-07-17T17:07:29.374Z,2.47
2018-07-17T17:09:57.987Z,1.90
2018-07-17T17:12:26.660Z,2.73
2018-07-17T17:14:55.287Z,2.70
2018-07-17T17:17:23.874Z,1.80
2018-07-17T17:19:53.335Z,3.53
2018-07-17T17:22:21.887Z,2.30
2018-07-17T17:24:50.418Z,2.80
2018-07-17T17:27:18.949Z,2.87
2018-07-17T17:29:47.485Z,2.30
2018-07-17T17:32:16.010Z,2.20
2018-07-17T17:34:44.562Z,1.70
2018-07-17T17:37:13.149Z,3.10
2018-07-17T17:39:42.016Z,2.13
2018-07-17T17:42:10.556Z,3.53
2018-07-17T17:44:39.081Z,2.57
2018-07-17T17:47:07.621Z,2.80
2018-07-17T17:49:35.835Z,1.97
2018-07-17T17:52:04.521Z,1.90
2018-07-17T17:54:35.391Z,2.43
2018-07-17T17:57:04.067Z,2.33
2018-07-17T17:59:32.604Z,2.60
2018-07-17T18:02:04.152Z,2.13
2018-07-17T18:04:32.718Z,1.87
2018-07-17T18:07:00.969Z,1.83
2018-07-17T18:09:29.560Z,1.83
2018-07-17T18:11:58.143Z,1.40
2018-07-17T18:14:26.691Z,6.43
2018-07-17T18:16:55.225Z,1.60
2018-07-17T18:19:23.766Z,2.20
2018-07-17T18:21:52.415Z,1.50
2018-07-17T18:24:20.980Z,1.20
2018-07-17T18:26:49.549Z,2.17
2018-07-17T18:29:18.145Z,1.33
2018-07-17T18:31:46.671Z,1.07
2018-07-17T18:34:15.297Z,1.40
2018-07-17T18:36:44.009Z,1.00
2018-07-17T18:39:12.612Z,1.73
2018-07-17T18:41:42.343Z,1.80
2018-07-17T18:44:10.948Z,1.20
2018-07-17T18:46:39.512Z,1.20
2018-07-17T18:49:08.067Z,1.13
2018-07-17T18:51:36.632Z,1.17
2018-07-17T18:54:05.193Z,1.17
2018-07-17T18:56:33.733Z,0.93
2018-07-17T18:59:02.295Z,1.30
2018-07-17T19:01:30.502Z,1.50
2018-07-17T19:03:59.350Z,1.20
2018-07-17T19:06:27.897Z,1.10
2018-07-17T19:08:56.430Z,0.90
2018-07-17T19:11:24.954Z,1.07
2018-07-17T19:13:54.566Z,1.20
2018-07-17T19:16:23.115Z,1.50
2018-07-17T19:18:51.646Z,2.50
2018-07-17T19:21:20.202Z,3.17
2018-07-17T19:23:48.729Z,1.30
2018-07-17T19:26:17.290Z,1.53
2018-07-17T19:28:45.969Z,2.40
2018-07-17T19:31:14.505Z,1.90
2018-07-17T19:33:44.072Z,1.10
2018-07-17T19:36:12.628Z,1.43
2018-07-17T19:38:41.198Z,1.73
2018-07-17T19:41:10.652Z,3.87
2018-07-17T19:43:40.236Z,1.90
2018-07-17T19:46:08.932Z,1.10
2018-07-17T19:48:37.486Z,1.30
2018-07-17T19:51:06.496Z,1.57
2018-07-17T19:53:35.040Z,4.67
2018-07-17T19:56:03.677Z,1.20
2018-07-17T19:58:32.359Z,1.40
2018-07-17T20:01:01.034Z,0.97
2018-07-17T20:03:29.720Z,1.03
2018-07-17T20:05:58.350Z,1.30
2018-07-17T20:08:26.982Z,1.20
2018-07-17T20:10:56.566Z,1.33
2018-07-17T20:13:25.123Z,1.20
2018-07-17T20:15:53.668Z,1.40
2018-07-17T20:18:22.211Z,1.60
2018-07-17T20:20:50.787Z,1.83
2018-07-17T20:23:19.603Z,1.57
2018-07-17T20:25:48.456Z,2.57
2018-07-17T20:28:17.016Z,1.80
2018-07-17T20:30:45.529Z,1.67
2018-07-17T20:33:14.164Z,2.70
2018-07-17T20:35:42.792Z,1.10
2018-07-17T20:38:11.308Z,1.23
2018-07-17T20:40:39.600Z,1.73
2018-07-17T20:43:08.451Z,1.77
2018-07-17T20:45:36.961Z,1.83
2018-07-17T20:48:05.151Z,1.60
2018-07-17T20:50:33.685Z,1.33
2018-07-17T20:53:02.472Z,1.60
2018-07-17T20:55:30.925Z,1.30
2018-07-17T20:58:00.534Z,1.97
2018-07-17T21:00:29.069Z,1.97
2018-07-17T21:02:57.324Z,2.50
2018-07-17T21:05:25.967Z,1.80
2018-07-17T21:07:54.495Z,1.90
2018-07-17T21:10:23.031Z,1.60
2018-07-17T21:12:51.604Z,2.70
2018-07-17T21:15:20.181Z,1.90
2018-07-17T21:17:48.679Z,3.17
2018-07-17T21:20:17.226Z,3.30
2018-07-17T21:22:45.576Z,2.53
2018-07-17T21:25:15.399Z,2.50
2018-07-17T21:27:43.918Z,2.20
2018-07-17T21:30:12.728Z,3.00
2018-07-17T21:32:41.330Z,1.93
2018-07-17T21:35:10.013Z,2.43
2018-07-17T21:37:38.532Z,2.80
2018-07-17T21:40:07.379Z,2.87
2018-07-17T21:42:36.178Z,2.30
2018-07-17T21:45:04.765Z,3.37
2018-07-17T21:47:33.267Z,3.20
2018-07-17T21:50:01.934Z,2.47
2018-07-17T21:52:30.596Z,5.20
2018-07-17T21:54:59.122Z,2.77
2018-07-17T21:57:27.662Z,2.67
2018-07-17T21:59:57.361Z,3.10
2018-07-17T22:02:26.172Z,3.40
2018-07-17T22:04:54.828Z,2.43
2018-07-17T22:07:23.494Z,2.77
2018-07-17T22:09:52.035Z,2.83
2018-07-17T22:12:22.599Z,3.27
2018-07-17T22:14:51.166Z,3.70
2018-07-17T22:17:19.682Z,3.00
2018-07-17T22:19:48.624Z,7.70
2018-07-17T22:22:17.148Z,3.40
2018-07-17T22:24:45.670Z,3.47
2018-07-17T22:27:14.233Z,4.07
2018-07-17T22:29:43.443Z,4.20
2018-07-17T22:32:11.979Z,4.20
2018-07-17T22:34:40.577Z,4.20
2018-07-17T22:37:09.203Z,4.67
2018-07-17T22:39:37.731Z,3.50
2018-07-17T22:42:06.649Z,4.40
2018-07-17T22:44:35.139Z,4.13
2018-07-17T22:47:04.199Z,4.60
2018-07-17T22:49:32.729Z,4.33
2018-07-17T22:52:01.265Z,4.13
2018-07-17T22:54:29.781Z,4.60
2018-07-17T23:02:39.007Z,4.07
2018-07-17T23:05:07.591Z,5.07
2018-07-17T23:07:36.104Z,6.40
2018-07-17T23:10:06.602Z,8.30
2018-07-17T23:12:35.121Z,9.50
2018-07-17T23:15:03.765Z,9.17
2018-07-17T23:17:32.308Z,11.30
2018-07-17T23:20:00.841Z,11.20
2018-07-17T23:22:52.708Z,14.03
2018-07-17T23:25:22.176Z,15.53
2018-07-17T23:27:50.866Z,15.10
2018-07-17T23:30:19.549Z,19.03
2018-07-17T23:32:49.571Z,17.90
2018-07-17T23:35:18.962Z,20.80
2018-07-17T23:37:47.784Z,25.57
2018-07-17T23:40:17.334Z,32.07
2018-07-17T23:42:45.964Z,35.00
2018-07-17T23:45:15.386Z,35.10
2018-07-17T23:47:45.471Z,37.53
2018-07-17T23:50:15.184Z,35.97
2018-07-17T23:52:43.894Z,37.23
2018-07-17T23:55:12.559Z,42.67
2018-07-17T23:57:41.951Z,39.00
